createdAt,value
2019-04-05T00:00:40.622Z,63.10
2019-04-05T00:03:10.092Z,65.70
2019-04-05T00:05:40.429Z,59.70
2019-04-05T00:08:11.330Z,59.20
2019-04-05T00:10:40.758Z,63.15
2019-04-05T00:13:11.782Z,59.53
2019-04-05T00:15:41.315Z,62.13
2019-04-05T00:18:13.281Z,57.63
2019-04-05T00:20:45.020Z,63.57
2019-04-05T00:23:14.524Z,66.60
2019-04-05T00:25:44.989Z,55.93
2019-04-05T00:28:16.109Z,64.67
2019-04-05T00:30:46.728Z,64.47
2019-04-05T00:33:17.322Z,63.85
2019-04-05T00:35:48.201Z,66.73
2019-04-05T00:38:18.737Z,65.47
2019-04-05T00:40:48.242Z,60.77
2019-04-05T00:43:17.699Z,61.93
2019-04-05T00:45:48.554Z,62.20
2019-04-05T00:48:20.442Z,66.60
2019-04-05T00:50:50.159Z,63.87
2019-04-05T00:53:19.609Z,69.60
2019-04-05T00:55:50.226Z,65.70
2019-04-05T00:58:20.964Z,67.87
2019-04-05T01:00:51.463Z,67.30
2019-04-05T01:03:20.871Z,69.00
2019-04-05T01:05:50.908Z,71.70
2019-04-05T01:08:20.326Z,73.97
2019-04-05T01:10:49.730Z,70.43
2019-04-05T01:13:21.172Z,77.35
2019-04-05T01:15:50.684Z,79.53
2019-04-05T01:18:20.176Z,77.90
2019-04-05T01:20:51.905Z,81.03
2019-04-05T01:23:24.012Z,76.33
2019-04-05T01:25:56.762Z,77.73
2019-04-05T01:28:29.786Z,76.20
2019-04-05T01:30:59.258Z,74.27
2019-04-05T01:33:31.260Z,78.47
2019-04-05T01:36:03.844Z,75.57
2019-04-05T01:38:36.222Z,77.73
2019-04-05T01:41:06.083Z,76.53
2019-04-05T01:43:36.768Z,76.57
2019-04-05T01:46:08.948Z,81.57
2019-04-05T01:48:40.665Z,77.57
2019-04-05T01:51:11.578Z,75.33
2019-04-05T01:53:40.983Z,76.22
2019-04-05T01:56:10.657Z,75.73
2019-04-05T01:58:40.111Z,74.03
2019-04-05T02:01:12.096Z,72.08
2019-04-05T02:03:41.850Z,76.87
2019-04-05T02:06:11.252Z,71.03
2019-04-05T02:08:41.223Z,79.77
2019-04-05T02:11:12.122Z,73.37
2019-04-05T02:13:41.525Z,74.50
2019-04-05T02:16:13.493Z,74.20
2019-04-05T02:18:46.372Z,74.33
2019-04-05T02:21:17.619Z,77.33
2019-04-05T02:23:47.423Z,84.97
2019-04-05T02:26:16.997Z,73.42
2019-04-05T02:28:47.947Z,73.17
2019-04-05T02:31:19.289Z,74.00
2019-04-05T02:33:50.490Z,70.75
2019-04-05T02:36:21.545Z,69.40
2019-04-05T02:38:52.057Z,67.70
2019-04-05T02:41:24.525Z,63.90
2019-04-05T02:43:56.948Z,62.87
2019-04-05T02:46:29.385Z,69.77
2019-04-05T02:49:01.645Z,66.27
2019-04-05T02:51:34.574Z,63.50
2019-04-05T02:54:04.919Z,74.60
2019-04-05T02:56:36.776Z,68.97
2019-04-05T02:59:07.481Z,64.53
2019-04-05T03:01:39.326Z,64.57
2019-04-05T03:04:11.113Z,61.47
2019-04-05T03:06:42.253Z,60.77
2019-04-05T03:09:12.969Z,68.40
2019-04-05T03:11:44.180Z,63.53
2019-04-05T03:14:15.051Z,62.43
2019-04-05T03:16:47.415Z,59.15
2019-04-05T03:19:21.040Z,60.90
2019-04-05T03:21:58.479Z,62.40
2019-04-05T03:24:32.094Z,66.30
2019-04-05T03:27:12.262Z,69.03
2019-04-05T03:29:43.108Z,68.73
2019-04-05T03:32:15.954Z,63.70
2019-04-05T03:34:46.027Z,70.45
2019-04-05T03:37:16.246Z,63.70
2019-04-05T03:39:46.386Z,67.23
2019-04-05T03:42:18.405Z,64.67
2019-04-05T03:44:48.913Z,70.10
2019-04-05T03:47:21.122Z,66.12
2019-04-05T03:49:51.044Z,65.97
2019-04-05T03:52:22.470Z,65.23
2019-04-05T03:54:53.143Z,66.27
2019-04-05T03:57:25.843Z,67.77
2019-04-05T03:59:56.691Z,71.55
2019-04-05T04:02:26.406Z,76.45
2019-04-05T04:04:56.615Z,81.47
2019-04-05T04:07:26.110Z,75.25
2019-04-05T04:09:55.939Z,75.67
2019-04-05T04:12:25.901Z,74.53
2019-04-05T04:14:57.611Z,72.30
2019-04-05T04:17:27.261Z,76.70
2019-04-05T04:19:57.339Z,78.12
2019-04-05T04:22:31.493Z,76.87
2019-04-05T04:25:02.684Z,71.00
2019-04-05T04:27:34.365Z,73.90
2019-04-05T04:30:03.972Z,78.83
2019-04-05T04:32:33.461Z,77.23
2019-04-05T04:35:03.816Z,78.37
2019-04-05T04:37:33.189Z,73.00
2019-04-05T04:40:04.274Z,80.27
2019-04-05T04:42:34.034Z,75.10
2019-04-05T04:45:11.945Z,77.07
2019-04-05T04:47:36.987Z,80.80
2019-04-05T04:50:08.148Z,75.50
2019-04-05T04:52:38.697Z,71.15
2019-04-05T04:55:11.270Z,73.83
2019-04-05T04:57:41.169Z,68.30
2019-04-05T05:00:10.894Z,72.30
2019-04-05T05:02:41.761Z,69.53
2019-04-05T05:05:12.176Z,66.37
2019-04-05T05:07:41.937Z,67.20
2019-04-05T05:10:11.619Z,76.90
2019-04-05T05:12:42.925Z,72.13
2019-04-05T05:15:13.042Z,72.10
2019-04-05T05:17:44.082Z,81.03
2019-04-05T05:20:15.163Z,80.67
2019-04-05T05:22:47.209Z,72.97
2019-04-05T05:25:17.437Z,78.67
2019-04-05T05:27:48.992Z,79.90
2019-04-05T05:30:18.513Z,76.90
2019-04-05T05:32:47.999Z,76.50
2019-04-05T05:35:21.132Z,76.37
2019-04-05T05:37:50.899Z,85.10
2019-04-05T05:40:34.095Z,82.77
2019-04-05T05:42:53.136Z,85.00
2019-04-05T05:45:24.084Z,81.57
2019-04-05T05:47:53.652Z,75.77
2019-04-05T05:50:23.363Z,82.67
2019-04-05T05:52:54.400Z,75.30
2019-04-05T05:55:23.907Z,77.05
2019-04-05T05:57:58.529Z,75.00
2019-04-05T06:00:31.073Z,84.00
2019-04-05T06:03:01.847Z,77.50
2019-04-05T06:05:31.669Z,78.57
2019-04-05T06:08:01.596Z,73.37
2019-04-05T06:10:33.749Z,71.53
2019-04-05T06:13:07.259Z,76.33
2019-04-05T06:15:37.558Z,70.53
2019-04-05T06:18:07.029Z,78.57
2019-04-05T06:20:36.706Z,75.43
2019-04-05T06:23:08.551Z,82.23
2019-04-05T06:25:37.978Z,74.83
2019-04-05T06:28:08.613Z,75.37
2019-04-05T06:30:38.062Z,81.27
2019-04-05T06:33:09.372Z,74.80
2019-04-05T06:35:39.177Z,81.27
2019-04-05T06:38:10.339Z,80.77
2019-04-05T06:40:41.410Z,81.10
2019-04-05T06:43:12.206Z,78.57
2019-04-05T06:45:44.409Z,76.17
2019-04-05T06:48:19.594Z,77.90
2019-04-05T06:50:47.262Z,78.43
2019-04-05T06:53:16.596Z,76.77
2019-04-05T06:55:46.035Z,74.65
2019-04-05T06:58:19.731Z,82.85
2019-04-05T07:00:57.070Z,77.47
2019-04-05T07:03:21.668Z,71.00
2019-04-05T07:05:52.534Z,80.50
2019-04-05T07:08:23.677Z,80.93
2019-04-05T07:10:53.184Z,74.70
2019-04-05T07:13:23.935Z,76.15
2019-04-05T07:15:54.437Z,71.95
2019-04-05T07:18:33.990Z,69.47
2019-04-05T07:20:57.875Z,73.03
2019-04-05T07:23:28.064Z,67.70
2019-04-05T07:26:00.523Z,74.90
2019-04-05T07:28:31.459Z,68.63
2019-04-05T07:31:02.106Z,68.23
2019-04-05T07:33:31.706Z,73.50
2019-04-05T07:36:04.295Z,71.63
2019-04-05T07:38:35.685Z,69.80
2019-04-05T07:41:07.664Z,75.57
2019-04-05T07:43:37.298Z,73.07
2019-04-05T07:46:06.906Z,78.97
2019-04-05T07:48:44.651Z,70.70
2019-04-05T07:51:07.816Z,77.23
2019-04-05T07:53:37.221Z,67.67
2019-04-05T07:56:09.787Z,69.30
2019-04-05T07:58:39.442Z,74.03
2019-04-05T08:01:09.211Z,72.27
2019-04-05T08:03:38.992Z,68.73
2019-04-05T08:06:08.715Z,70.70
2019-04-05T08:08:46.827Z,73.77
2019-04-05T08:11:17.064Z,68.07
2019-04-05T08:13:49.015Z,68.67
2019-04-05T08:16:18.641Z,69.80
2019-04-05T08:18:57.538Z,73.53
2019-04-05T08:21:22.921Z,73.52
2019-04-05T08:23:52.373Z,64.55
2019-04-05T08:26:22.761Z,66.67
2019-04-05T08:28:52.797Z,67.12
2019-04-05T08:31:22.247Z,66.28
2019-04-05T08:33:51.757Z,66.80
2019-04-05T08:36:23.352Z,65.40
2019-04-05T08:38:54.625Z,68.45
2019-04-05T08:41:25.611Z,69.13
2019-04-05T08:43:55.358Z,66.20
2019-04-05T08:46:27.766Z,67.57
2019-04-05T08:49:10.053Z,64.33
2019-04-05T08:51:31.298Z,67.50
2019-04-05T08:54:02.638Z,66.10
2019-04-05T08:56:32.296Z,73.60
2019-04-05T08:59:03.247Z,71.07
2019-04-05T09:01:32.764Z,77.80
2019-04-05T09:04:03.711Z,68.60
2019-04-05T09:06:35.162Z,68.77
2019-04-05T09:09:07.231Z,66.53
2019-04-05T09:11:37.963Z,65.33
2019-04-05T09:14:07.583Z,65.33
2019-04-05T09:16:38.812Z,68.37
2019-04-05T09:19:22.776Z,72.40
2019-04-05T09:21:41.632Z,72.40
2019-04-05T09:24:11.180Z,71.33
2019-04-05T09:26:41.208Z,72.20
2019-04-05T09:29:11.321Z,71.28
2019-04-05T09:31:41.061Z,72.87
2019-04-05T09:34:11.092Z,71.73
2019-04-05T09:36:44.616Z,72.47
2019-04-05T09:39:15.877Z,67.50
2019-04-05T09:41:45.378Z,67.67
2019-04-05T09:44:15.268Z,67.60
2019-04-05T09:46:50.984Z,63.83
2019-04-05T09:49:21.117Z,63.48
2019-04-05T09:51:51.817Z,65.83
2019-04-05T09:54:21.404Z,67.50
2019-04-05T09:56:56.587Z,63.83
2019-04-05T09:59:25.159Z,63.23
2019-04-05T10:01:54.673Z,65.20
2019-04-05T10:04:31.131Z,63.50
2019-04-05T10:06:59.629Z,68.27
2019-04-05T10:09:30.785Z,65.87
2019-04-05T10:12:00.616Z,71.30
2019-04-05T10:14:30.361Z,66.63
2019-04-05T10:16:59.906Z,64.00
2019-04-05T10:19:31.503Z,70.37
2019-04-05T10:22:01.135Z,62.07
2019-04-05T10:24:33.152Z,65.67
2019-04-05T10:27:02.765Z,69.53
2019-04-05T10:29:33.873Z,66.77
2019-04-05T10:32:03.416Z,67.23
2019-04-05T10:34:32.994Z,70.37
2019-04-05T10:37:04.579Z,64.50
2019-04-05T10:39:34.226Z,70.30
2019-04-05T10:42:15.917Z,68.90
2019-04-05T10:44:42.611Z,66.77
2019-04-05T10:47:13.124Z,66.57
2019-04-05T10:49:43.582Z,65.73
2019-04-05T10:52:13.321Z,64.93
2019-04-05T10:54:44.314Z,65.97
2019-04-05T10:57:14.779Z,66.47
2019-04-05T10:59:45.595Z,66.13
2019-04-05T11:02:15.043Z,66.80
2019-04-05T11:04:46.358Z,69.13
2019-04-05T11:07:15.840Z,61.80
2019-04-05T11:09:53.538Z,62.35
2019-04-05T11:12:25.419Z,62.50
2019-04-05T11:14:56.975Z,65.60
2019-04-05T11:17:27.382Z,65.00
2019-04-05T11:19:56.803Z,72.77
2019-04-05T11:22:26.368Z,67.67
2019-04-05T11:24:57.689Z,65.83
2019-04-05T11:27:27.386Z,65.05
2019-04-05T11:29:59.253Z,66.97
2019-04-05T11:32:28.851Z,68.00
2019-04-05T11:34:59.521Z,64.17
2019-04-05T11:37:29.475Z,58.20
2019-04-05T11:39:59.189Z,65.00
2019-04-05T11:42:29.468Z,65.13
2019-04-05T11:45:01.679Z,65.70
2019-04-05T11:47:32.367Z,69.27
2019-04-05T11:50:10.547Z,65.43
2019-04-05T11:52:40.159Z,64.10
2019-04-05T11:55:09.574Z,67.62
2019-04-05T11:57:41.463Z,64.77
2019-04-05T12:00:18.838Z,66.63
2019-04-05T12:02:52.999Z,67.70
2019-04-05T12:05:26.957Z,66.42
2019-04-05T12:07:58.577Z,67.17
2019-04-05T12:10:27.887Z,62.43
2019-04-05T12:12:58.734Z,67.67
2019-04-05T12:15:28.435Z,68.37
2019-04-05T12:17:59.374Z,65.93
2019-04-05T12:20:30.745Z,66.05
2019-04-05T12:23:03.812Z,64.47
2019-04-05T12:25:34.503Z,69.63
2019-04-05T12:28:06.986Z,70.20
2019-04-05T12:30:38.383Z,63.83
2019-04-05T12:33:14.345Z,68.23
2019-04-05T12:35:41.765Z,69.20
2019-04-05T12:38:13.439Z,71.63
2019-04-05T12:40:43.080Z,70.13
2019-04-05T12:43:13.628Z,70.40
2019-04-05T12:45:44.653Z,69.23
2019-04-05T12:48:16.007Z,71.70
2019-04-05T12:50:47.157Z,69.90
2019-04-05T12:53:16.795Z,68.27
2019-04-05T12:55:47.234Z,68.92
2019-04-05T12:58:16.783Z,68.35
2019-04-05T13:00:47.773Z,69.60
2019-04-05T13:03:20.850Z,69.47
2019-04-05T13:05:51.596Z,62.97
2019-04-05T13:08:24.862Z,71.33
2019-04-05T13:10:56.176Z,66.02
2019-04-05T13:13:27.863Z,64.77
2019-04-05T13:15:59.460Z,72.10
2019-04-05T13:18:31.549Z,71.10
2019-04-05T13:21:09.385Z,66.83
2019-04-05T13:23:35.970Z,71.30
2019-04-05T13:26:11.472Z,65.17
2019-04-05T13:28:40.076Z,65.27
2019-04-05T13:31:11.747Z,72.23
2019-04-05T13:33:42.882Z,70.97
2019-04-05T13:36:12.787Z,69.20
2019-04-05T13:38:54.621Z,74.80
2019-04-05T13:41:19.074Z,75.12
2019-04-05T13:43:49.828Z,79.97
2019-04-05T13:46:22.203Z,76.62
2019-04-05T13:48:57.308Z,77.47
2019-04-05T13:51:30.488Z,81.87
2019-04-05T13:53:58.392Z,79.63
2019-04-05T13:56:29.604Z,77.50
2019-04-05T13:59:01.041Z,83.82
2019-04-05T14:01:30.727Z,85.60
2019-04-05T14:04:02.150Z,111.77
2019-04-05T14:06:32.635Z,86.77
2019-04-05T14:09:03.353Z,79.63
2019-04-05T14:11:34.371Z,74.97
2019-04-05T14:14:06.823Z,82.67
2019-04-05T14:16:38.385Z,81.67
2019-04-05T14:19:08.249Z,79.63
2019-04-05T14:21:40.848Z,81.83
2019-04-05T14:24:11.116Z,80.93
2019-04-05T14:26:43.588Z,86.00
2019-04-05T14:29:13.257Z,83.87
2019-04-05T14:31:44.192Z,89.43
2019-04-05T14:34:13.692Z,80.40
2019-04-05T14:36:45.109Z,80.93
2019-04-05T14:39:16.660Z,78.37
2019-04-05T14:41:46.073Z,76.80
2019-04-05T14:44:15.741Z,86.70
2019-04-05T14:46:45.586Z,77.03
2019-04-05T14:49:16.126Z,75.33
2019-04-05T14:51:53.908Z,77.77
2019-04-05T14:54:23.527Z,77.60
2019-04-05T14:56:57.309Z,76.83
2019-04-05T14:59:28.779Z,81.00
2019-04-05T15:01:59.679Z,76.57
2019-04-05T15:04:29.084Z,79.50
2019-04-05T15:07:01.210Z,81.03
2019-04-05T15:09:31.747Z,80.20
2019-04-05T15:12:01.140Z,77.33
2019-04-05T15:14:30.561Z,76.23
2019-04-05T15:17:01.897Z,84.83
2019-04-05T15:19:31.591Z,75.67
2019-04-05T15:22:06.094Z,83.43
2019-04-05T15:24:32.681Z,79.10
2019-04-05T15:27:03.236Z,79.17
2019-04-05T15:29:35.633Z,80.30
2019-04-05T15:32:05.714Z,78.73
2019-04-05T15:34:35.119Z,79.80
2019-04-05T15:37:06.361Z,81.37
2019-04-05T15:39:36.090Z,78.13
2019-04-05T15:42:05.881Z,85.87
2019-04-05T15:44:35.357Z,83.17
2019-04-05T15:47:04.931Z,89.32
2019-04-05T15:49:36.874Z,86.77
2019-04-05T15:52:18.005Z,77.00
2019-04-05T15:54:38.954Z,77.30
2019-04-05T15:57:09.522Z,75.67
2019-04-05T15:59:41.452Z,75.60
2019-04-05T16:02:11.118Z,77.23
2019-04-05T16:04:40.508Z,78.17
2019-04-05T16:07:09.933Z,74.83
2019-04-05T16:09:39.606Z,77.70
2019-04-05T16:12:10.184Z,85.33
2019-04-05T16:14:39.694Z,86.10
2019-04-05T16:17:12.518Z,79.00
2019-04-05T16:19:42.413Z,74.60
2019-04-05T16:22:13.537Z,80.00
2019-04-05T16:24:43.213Z,79.80
2019-04-05T16:27:14.493Z,76.70
2019-04-05T16:29:45.863Z,79.07
2019-04-05T16:32:17.269Z,77.33
2019-04-05T16:34:48.203Z,73.63
2019-04-05T16:37:17.669Z,76.27
2019-04-05T16:39:50.323Z,70.83
2019-04-05T16:42:19.690Z,66.93
2019-04-05T16:44:50.130Z,68.10
2019-04-05T16:47:21.363Z,67.27
2019-04-05T16:49:52.063Z,65.37
2019-04-05T16:52:24.492Z,66.83
2019-04-05T16:54:54.201Z,70.67
2019-04-05T16:57:24.988Z,65.42
2019-04-05T16:59:54.395Z,69.07
2019-04-05T17:02:26.604Z,67.73
2019-04-05T17:04:57.117Z,66.57
2019-04-05T17:07:27.688Z,68.20
2019-04-05T17:09:58.624Z,63.80
2019-04-05T17:12:29.870Z,68.62
2019-04-05T17:14:59.314Z,60.08
2019-04-05T17:17:29.317Z,66.87
2019-04-05T17:19:58.748Z,59.07
2019-04-05T17:22:28.249Z,69.73
2019-04-05T17:24:59.893Z,63.30
2019-04-05T17:27:29.287Z,68.47
2019-04-05T17:30:00.397Z,59.00
2019-04-05T17:32:31.367Z,65.53
2019-04-05T17:35:00.853Z,65.53
2019-04-05T17:37:30.235Z,59.20
2019-04-05T17:40:00.703Z,59.50
2019-04-05T17:42:30.092Z,58.47
2019-04-05T17:44:59.711Z,57.08
2019-04-05T17:47:29.248Z,61.13
2019-04-05T17:49:58.620Z,63.33
2019-04-05T17:52:30.605Z,59.00
2019-04-05T17:55:00.107Z,62.50
2019-04-05T17:57:29.913Z,67.70
2019-04-05T18:00:01.082Z,64.97
2019-04-05T18:02:30.578Z,62.03
2019-04-05T18:05:01.835Z,60.57
2019-04-05T18:07:34.410Z,62.47
2019-04-05T18:10:05.462Z,63.27
2019-04-05T18:12:34.915Z,63.93
2019-04-05T18:15:05.921Z,61.90
2019-04-05T18:17:35.427Z,67.10
2019-04-05T18:20:06.275Z,64.90
2019-04-05T18:22:35.875Z,66.03
2019-04-05T18:25:06.705Z,63.25
2019-04-05T18:27:36.121Z,60.33
2019-04-05T18:30:07.933Z,61.13
2019-04-05T18:32:37.657Z,63.68
2019-04-05T18:35:08.717Z,68.33
2019-04-05T18:37:39.540Z,68.63
2019-04-05T18:40:09.705Z,66.20
2019-04-05T18:42:40.367Z,70.03
2019-04-05T18:45:11.671Z,64.37
2019-04-05T18:47:43.142Z,63.27
2019-04-05T18:50:15.510Z,61.77
2019-04-05T18:52:45.922Z,68.10
2019-04-05T18:55:16.694Z,65.60
2019-04-05T18:57:47.203Z,70.57
2019-04-05T19:00:17.445Z,66.23
2019-04-05T19:02:47.944Z,63.90
2019-04-05T19:05:17.566Z,63.52
2019-04-05T19:07:47.034Z,61.40
2019-04-05T19:10:18.231Z,86.37
2019-04-05T19:12:47.778Z,70.60
2019-04-05T19:15:17.406Z,62.17
2019-04-05T19:17:49.582Z,65.25
2019-04-05T19:20:20.882Z,62.13
2019-04-05T19:22:50.482Z,66.40
2019-04-05T19:25:20.222Z,65.03
2019-04-05T19:27:49.729Z,65.52
2019-04-05T19:48:41.784Z,65.70
2019-04-05T19:50:43.337Z,60.90
2019-04-05T19:53:13.947Z,62.20
2019-04-05T19:55:45.515Z,63.33
2019-04-05T19:58:16.762Z,67.00
2019-04-05T20:00:48.224Z,65.17
2019-04-05T20:03:17.776Z,60.50
2019-04-05T20:05:47.174Z,63.47
2019-04-05T20:08:16.580Z,66.03
2019-04-05T20:10:46.237Z,61.03
2019-04-05T20:13:15.656Z,61.67
2019-04-05T20:15:45.082Z,60.50
2019-04-05T20:18:14.803Z,62.53
2019-04-05T20:20:44.375Z,61.90
2019-04-05T20:23:14.286Z,60.57
2019-04-05T20:25:43.922Z,57.07
2019-04-05T20:28:13.335Z,60.70
2019-04-05T20:30:43.484Z,63.65
2019-04-05T20:33:13.132Z,59.57
2019-04-05T20:35:43.115Z,59.00
2019-04-05T20:38:13.157Z,57.80
2019-04-05T20:40:43.179Z,60.33
2019-04-05T20:43:13.220Z,59.70
2019-04-05T20:45:43.091Z,58.40
2019-04-05T20:48:13.224Z,58.00
2019-04-05T20:50:43.109Z,63.33
2019-04-05T20:53:13.046Z,58.60
2019-04-05T20:55:43.457Z,61.03
2019-04-05T20:58:13.145Z,57.13
2019-04-05T21:00:43.095Z,59.10
2019-04-05T21:03:13.437Z,63.45
2019-04-05T21:05:44.270Z,61.97
2019-04-05T21:08:13.685Z,60.63
2019-04-05T21:10:43.372Z,65.47
2019-04-05T21:13:13.285Z,57.38
2019-04-05T21:15:44.623Z,58.73
2019-04-05T21:18:14.133Z,65.87
2019-04-05T21:20:43.611Z,63.40
2019-04-05T21:23:13.281Z,63.07
2019-04-05T21:25:43.484Z,63.33
2019-04-05T21:28:13.208Z,60.80
2019-04-05T21:30:43.133Z,63.70
2019-04-05T21:33:14.384Z,63.93
2019-04-05T21:35:45.791Z,65.33
2019-04-05T21:38:15.225Z,59.83
2019-04-05T21:40:45.053Z,65.90
2019-04-05T21:43:16.292Z,65.00
2019-04-05T21:45:46.769Z,63.63
2019-04-05T21:48:16.515Z,62.03
2019-04-05T21:50:46.393Z,62.07
2019-04-05T21:53:16.906Z,62.40
2019-04-05T21:55:46.792Z,64.80
2019-04-05T21:58:18.313Z,62.17
2019-04-05T22:00:55.012Z,61.90
2019-04-05T22:03:24.524Z,67.15
2019-04-05T22:05:53.947Z,69.53
2019-04-05T22:08:24.912Z,67.57
2019-04-05T22:10:54.478Z,68.00
2019-04-05T22:13:23.904Z,67.13
2019-04-05T22:15:53.614Z,68.97
2019-04-05T22:18:23.027Z,65.57
2019-04-05T22:20:52.459Z,70.25
2019-04-05T22:23:21.951Z,71.77
2019-04-05T22:25:51.361Z,71.97
2019-04-05T22:28:20.943Z,76.47
2019-04-05T22:30:50.533Z,64.63
2019-04-05T22:33:20.205Z,68.37
2019-04-05T22:35:49.928Z,64.10
2019-04-05T22:38:19.637Z,65.63
2019-04-05T22:40:49.216Z,63.98
2019-04-05T22:43:18.712Z,64.05
2019-04-05T22:45:48.338Z,67.27
2019-04-05T22:48:17.933Z,58.40
2019-04-05T22:50:47.345Z,61.53
2019-04-05T22:53:16.922Z,66.07
2019-04-05T22:55:46.366Z,67.07
2019-04-05T22:58:15.818Z,60.33
2019-04-05T23:00:45.468Z,62.30
2019-04-05T23:03:14.847Z,65.20
2019-04-05T23:05:44.292Z,63.87
2019-04-05T23:08:13.904Z,64.50
2019-04-05T23:10:43.429Z,60.33
2019-04-05T23:13:13.500Z,64.97
2019-04-05T23:15:43.680Z,61.80
2019-04-05T23:18:13.447Z,70.93
2019-04-05T23:20:43.564Z,62.50
2019-04-05T23:23:13.890Z,63.15
2019-04-05T23:25:43.500Z,62.07
2019-04-05T23:28:13.524Z,66.87
2019-04-05T23:30:43.703Z,67.20
2019-04-05T23:33:14.492Z,59.93
2019-04-05T23:35:43.944Z,66.33
2019-04-05T23:38:15.176Z,65.90
2019-04-05T23:40:44.878Z,63.57
2019-04-05T23:43:15.583Z,65.90
2019-04-05T23:45:45.017Z,60.93
2019-04-05T23:48:14.394Z,69.70
2019-04-05T23:50:45.245Z,67.73
2019-04-05T23:53:14.934Z,69.23
2019-04-05T23:55:44.296Z,67.53
2019-04-05T23:58:13.674Z,63.97
